Time;durP1;ratioP1;P1;durP2;ratioP2;P2;SDS_P1;SDS_P2;PMS_P1;PMS_P2;Temp;Humidity;BMP_temperature;BMP_pressure;BME280_temperature;BME280_humidity;BME280_pressure;Samples;Min_cycle;Max_cycle;Signal;HPM_P1;HPM_P2
2022/01/02 00:00:13;;;;;;;0.10;0.10;;;;;;;1.61;76.98;100308.71;1697167;83;21021;-73
2022/01/02 00:02:42;;;;;;;0.00;0.00;;;;;;;1.69;77.32;100302.30;1697525;83;21372;-59
2022/01/02 00:05:12;;;;;;;0.00;0.00;;;;;;;1.68;77.09;100313.80;1693458;82;20962;-59
2022/01/02 00:07:54;;;;;;;0.00;0.00;;;;;;;1.64;77.47;100326.00;1720852;82;21521;-63
2022/01/02 00:10:21;;;;;;;0.10;0.10;;;;;;;1.61;77.67;100321.85;1718736;82;20989;-75
2022/01/02 00:12:52;;;;;;;2.33;0.30;;;;;;;1.20;77.88;100247.39;1718169;82;21006;-61
2022/01/02 00:15:24;;;;;;;1.93;0.10;;;;;;;1.70;76.46;100330.75;1713454;82;21088;-59
2022/01/02 00:17:52;;;;;;;0.53;0.47;;;;;;;1.70;74.99;100334.20;1720457;82;20970;-60
2022/01/02 00:20:32;;;;;;;0.20;0.07;;;;;;;1.66;74.27;100354.32;1704043;82;21123;-58
2022/01/02 00:22:55;;;;;;;0.20;0.10;;;;;;;1.60;73.77;100364.02;1710869;82;21320;-58
2022/01/02 00:25:27;;;;;;;0.00;0.00;;;;;;;1.60;71.91;100357.44;1679793;83;21005;-61
2022/01/02 00:27:52;;;;;;;0.00;0.00;;;;;;;1.60;70.69;100373.20;1695615;83;21133;-59
2022/01/02 00:30:18;;;;;;;0.57;0.10;;;;;;;1.57;68.81;100371.69;1698643;83;21135;-59
2022/01/02 00:32:45;;;;;;;0.05;0.00;;;;;;;1.57;68.21;100380.05;1700116;84;21000;-60
2022/01/02 00:35:12;;;;;;;0.10;0.10;;;;;;;1.51;66.95;100382.72;1713808;82;21081;-64
2022/01/02 00:37:40;;;;;;;0.00;0.00;;;;;;;1.55;66.04;100393.31;1714985;82;21028;-61
2022/01/02 00:40:08;;;;;;;2.83;0.53;;;;;;;1.52;66.73;100397.50;1720974;82;21011;-60
2022/01/02 00:42:40;;;;;;;0.00;0.00;;;;;;;1.50;67.34;100404.19;1712302;82;21166;-62
2022/01/02 00:45:18;;;;;;;0.07;0.00;;;;;;;1.46;67.86;100408.52;1713998;82;21528;-58
2022/01/02 00:48:08;;;;;;;0.10;0.00;;;;;;;1.46;68.73;100405.41;1697454;82;21018;-59
2022/01/02 00:50:45;;;;;;;0.10;0.10;;;;;;;1.42;69.40;100414.52;1723342;83;21015;-62
2022/01/02 00:53:16;;;;;;;0.10;0.10;;;;;;;1.34;70.44;100412.52;1706886;82;21089;-60
2022/01/02 00:55:43;;;;;;;1.20;0.10;;;;;;;1.39;69.38;100428.38;1720743;82;21064;-59
2022/01/02 00:58:19;;;;;;;0.30;0.00;;;;;;;1.31;67.90;100417.19;1713625;82;21519;-61
2022/01/02 01:00:49;;;;;;;0.20;0.00;;;;;;;1.31;67.45;100428.52;1711032;82;20991;-61
2022/01/02 01:03:21;;;;;;;0.00;0.00;;;;;;;1.32;65.11;100426.75;1657669;85;21061;-60
2022/01/02 01:05:48;;;;;;;0.00;0.00;;;;;;;1.33;64.35;100410.02;1720223;82;21075;-59
2022/01/02 01:08:16;;;;;;;0.10;0.10;;;;;;;1.36;64.17;100392.70;1723028;82;21055;-60
2022/01/02 01:10:44;;;;;;;0.00;0.00;;;;;;;1.39;63.84;100403.42;1720996;82;21601;-63
2022/01/02 01:13:11;;;;;;;0.00;0.00;;;;;;;1.34;63.72;100388.06;1718652;81;20948;-63
2022/01/02 01:15:39;;;;;;;0.00;0.00;;;;;;;1.47;63.50;100395.27;1713675;82;21091;-59
2022/01/02 01:18:06;;;;;;;0.00;0.00;;;;;;;1.49;64.14;100396.46;1716104;83;21073;-59
2022/01/02 01:20:40;;;;;;;0.30;0.20;;;;;;;1.51;64.78;100404.55;1714957;82;21018;-61
2022/01/02 01:23:07;;;;;;;0.00;0.00;;;;;;;1.53;64.54;100401.80;1708800;82;21089;-62
2022/01/02 01:25:38;;;;;;;0.10;0.10;;;;;;;1.55;65.18;100410.39;1704331;82;21037;-58
2022/01/02 01:28:05;;;;;;;0.10;0.00;;;;;;;1.53;64.67;100424.13;1719432;82;20992;-58
2022/01/02 01:30:31;;;;;;;0.10;0.05;;;;;;;1.51;64.65;100420.80;1720851;82;21003;-58
2022/01/02 01:32:57;;;;;;;0.10;0.10;;;;;;;1.48;64.98;100428.44;1713585;82;21067;-59
2022/01/02 01:35:24;;;;;;;0.00;0.00;;;;;;;1.48;64.77;100449.45;1708908;82;21554;-67
2022/01/02 01:37:52;;;;;;;0.10;0.10;;;;;;;1.48;64.77;100449.45;1710859;82;21037;-67
2022/01/02 01:40:19;;;;;;;0.10;0.10;;;;;;;1.51;64.57;100457.58;1716467;82;21523;-59
2022/01/02 01:42:58;;;;;;;0.30;0.10;;;;;;;1.50;64.82;100463.30;1722237;82;21058;-61
2022/01/02 01:45:29;;;;;;;0.10;0.10;;;;;;;1.49;65.81;100462.14;1723198;82;21012;-59
2022/01/02 01:48:02;;;;;;;0.07;0.00;;;;;;;1.50;66.27;100471.66;1723391;83;21023;-60
2022/01/02 01:50:38;;;;;;;0.10;0.10;;;;;;;1.42;67.43;100470.16;1722851;82;21000;-59
2022/01/02 01:53:07;;;;;;;0.20;0.10;;;;;;;1.38;68.00;100471.37;1687476;84;21416;-60
2022/01/02 01:55:37;;;;;;;0.17;0.10;;;;;;;1.25;69.12;100474.16;1699051;83;21056;-61
2022/01/02 01:58:05;;;;;;;0.10;0.10;;;;;;;1.26;69.25;100470.56;1694113;84;21074;-61
2022/01/02 02:00:34;;;;;;;0.10;0.10;;;;;;;1.19;69.07;100467.62;1701021;83;21010;-59
2022/01/02 02:03:03;;;;;;;1.40;0.20;;;;;;;1.15;69.11;100484.58;1720900;82;21038;-59
2022/01/02 02:05:32;;;;;;;0.00;0.00;;;;;;;1.12;68.85;100476.45;1724011;82;20983;-58
2022/01/02 02:07:58;;;;;;;;;;;;;;;1.15;68.39;100478.84;1724337;82;20983;-59
2022/01/02 02:10:39;;;;;;;;;;;;;;;1.12;68.47;100485.64;1721741;82;20138;-61
2022/01/02 02:12:59;;;;;;;0.10;0.10;;;;;;;1.07;68.71;100490.91;1693544;82;20096;-58
2022/01/02 02:15:27;;;;;;;0.10;0.10;;;;;;;1.01;67.97;100487.47;1692578;82;21030;-58
2022/01/02 02:17:53;;;;;;;0.15;0.10;;;;;;;0.97;67.33;100492.13;1723180;82;21089;-60
2022/01/02 02:20:31;;;;;;;0.47;0.10;;;;;;;0.98;67.23;100488.56;1702250;82;21108;-59
2022/01/02 02:23:00;;;;;;;0.73;0.10;;;;;;;0.92;66.84;100494.28;1700043;83;21010;-61
2022/01/02 02:25:31;;;;;;;0.20;0.10;;;;;;;0.95;66.89;100501.92;1714880;83;21557;-59
2022/01/02 02:28:02;;;;;;;0.10;0.10;;;;;;;0.89;66.30;100512.91;1705423;83;21542;-62
2022/01/02 02:30:32;;;;;;;0.47;0.20;;;;;;;0.84;66.40;100515.88;1698310;83;21495;-59
2022/01/02 02:33:02;;;;;;;0.10;0.10;;;;;;;0.81;65.69;100516.14;1697973;83;21113;-58
2022/01/02 02:35:32;;;;;;;0.10;0.10;;;;;;;0.78;65.77;100517.20;1712223;83;21038;-59
2022/01/02 02:37:59;;;;;;;0.43;0.10;;;;;;;0.80;66.33;100523.64;1714564;83;21036;-58
2022/01/02 02:40:27;;;;;;;;;;;;;;;0.77;66.37;100517.31;1717234;83;21509;-59
2022/01/02 02:51:34;;;;;;;0.10;0.10;;;;;;;0.69;66.27;100527.59;1704042;83;21058;-60
2022/01/02 02:53:56;;;;;;;0.10;0.10;;;;;;;0.68;66.52;100528.53;1664884;85;21607;-64
2022/01/02 02:56:26;;;;;;;0.67;0.10;;;;;;;0.69;66.56;100531.52;1702877;82;21598;-60
2022/01/02 02:58:56;;;;;;;0.10;0.10;;;;;;;0.68;66.53;100538.56;1645368;85;21081;-58
2022/01/02 03:01:27;;;;;;;0.10;0.10;;;;;;;0.72;66.43;100528.19;1637828;85;21033;-58
2022/01/02 03:03:54;;;;;;;0.27;0.10;;;;;;;0.67;66.54;100538.20;1672184;84;21581;-59
2022/01/02 03:06:22;;;;;;;1.00;0.53;;;;;;;0.64;66.34;100539.77;1668648;84;21116;-58
2022/01/02 03:08:50;;;;;;;0.10;0.10;;;;;;;0.59;66.61;100540.59;1709309;82;21029;-59
2022/01/02 03:11:20;;;;;;;0.10;0.10;;;;;;;0.53;66.57;100545.83;1718742;82;21077;-58
2022/01/02 03:13:52;;;;;;;0.13;0.10;;;;;;;0.52;66.19;100557.27;1701507;82;21592;-60
2022/01/02 03:16:18;;;;;;;0.10;0.10;;;;;;;0.50;66.26;100563.59;1715141;83;21507;-61
2022/01/02 03:18:46;;;;;;;0.10;0.10;;;;;;;0.48;66.04;100565.50;1716281;82;21006;-58
2022/01/02 03:21:13;;;;;;;0.10;0.10;;;;;;;0.34;65.48;100566.08;1723621;82;20987;-67
2022/01/02 03:23:42;;;;;;;0.20;0.20;;;;;;;0.30;65.39;100573.83;1710809;82;21611;-64
2022/01/02 03:26:09;;;;;;;0.10;0.10;;;;;;;0.26;65.62;100576.78;1723399;82;21522;-59
2022/01/02 03:28:38;;;;;;;0.17;0.10;;;;;;;0.12;65.40;100569.96;1707754;82;21034;-57
2022/01/02 03:31:05;;;;;;;0.20;0.10;;;;;;;0.15;65.26;100577.13;1719733;82;21463;-58
2022/01/02 03:33:33;;;;;;;0.13;0.10;;;;;;;0.06;64.84;100588.30;1723306;82;21046;-62
2022/01/02 03:36:00;;;;;;;0.20;0.20;;;;;;;0.01;64.03;100583.03;1722572;82;21245;-68
2022/01/02 03:38:27;;;;;;;0.70;0.30;;;;;;;-0.12;64.47;100590.97;1721997;82;21451;-59
2022/01/02 03:40:54;;;;;;;0.97;0.30;;;;;;;-0.15;64.43;100584.17;1719668;82;21533;-61
2022/01/02 03:43:21;;;;;;;0.70;0.13;;;;;;;-0.26;63.48;100603.30;1723836;82;21038;-59
2022/01/02 03:45:48;;;;;;;0.87;0.10;;;;;;;-0.31;63.92;100609.33;1705644;82;21105;-61
2022/01/02 03:48:14;;;;;;;0.10;0.10;;;;;;;-0.37;63.88;100615.50;1724029;83;21029;-59
2022/01/02 03:50:42;;;;;;;0.40;0.20;;;;;;;-0.41;63.79;100620.13;1702817;82;21593;-58
2022/01/02 03:53:08;;;;;;;0.50;0.40;;;;;;;-0.43;64.06;100628.09;1714879;82;21097;-60
2022/01/02 03:55:35;;;;;;;0.42;0.30;;;;;;;-0.47;63.70;100623.16;1718029;82;21566;-59
2022/01/02 03:58:02;;;;;;;0.30;0.20;;;;;;;-0.46;63.72;100632.70;1723038;82;21037;-59
2022/01/02 04:00:29;;;;;;;0.23;0.10;;;;;;;-0.49;63.93;100643.39;1719099;83;20993;-58
2022/01/02 04:02:55;;;;;;;0.40;0.13;;;;;;;-0.50;63.73;100645.66;1694202;83;21034;-59
2022/01/02 04:05:21;;;;;;;0.20;0.20;;;;;;;-0.53;63.69;100664.20;1705404;83;21065;-61
2022/01/02 04:07:49;;;;;;;0.20;0.13;;;;;;;-0.61;63.63;100668.19;1709134;83;21526;-59
2022/01/02 04:10:18;;;;;;;0.20;0.20;;;;;;;-0.63;63.85;100667.94;1705803;83;21142;-59
2022/01/02 04:12:45;;;;;;;0.20;0.20;;;;;;;-0.62;63.80;100680.93;1735932;82;21115;-59
2022/01/02 04:15:15;;;;;;;0.30;0.10;;;;;;;-0.69;63.27;100683.61;1745718;81;21026;-62
2022/01/02 04:17:42;;;;;;;0.30;0.30;;;;;;;-0.63;63.24;100686.27;1652797;86;21050;-59
2022/01/02 04:20:14;;;;;;;0.30;0.30;;;;;;;-0.65;63.47;100681.62;1682596;84;21511;-59
2022/01/02 04:22:42;;;;;;;0.70;0.30;;;;;;;-0.66;63.11;100685.16;1686481;84;21105;-60
2022/01/02 04:25:11;;;;;;;0.60;0.20;;;;;;;-0.71;62.33;100688.59;1667417;84;21082;-58
2022/01/02 04:27:38;;;;;;;0.20;0.10;;;;;;;-0.67;62.99;100700.05;1714492;82;21070;-57
2022/01/02 04:30:09;;;;;;;0.20;0.20;;;;;;;-0.74;62.94;100680.95;1710854;82;21020;-59
2022/01/02 04:32:36;;;;;;;1.27;0.43;;;;;;;-0.72;62.72;100696.08;1709432;82;21494;-70
2022/01/02 04:35:05;;;;;;;1.33;0.10;;;;;;;-0.73;62.78;100707.02;1712862;82;21072;-59
2022/01/02 04:37:32;;;;;;;0.23;0.20;;;;;;;-0.73;63.11;100712.26;1715315;82;21034;-58
2022/01/02 04:39:58;;;;;;;0.20;0.20;;;;;;;-0.76;62.90;100720.31;1719182;82;20975;-59
2022/01/02 04:42:24;;;;;;;;;;;;;;;-0.79;62.54;100714.83;1700953;82;21055;-62
2022/01/02 04:44:51;;;;;;;0.20;0.20;;;;;;;-0.80;62.76;100719.69;1708421;82;20157;-59
2022/01/02 04:47:18;;;;;;;0.23;0.10;;;;;;;-0.85;63.16;100731.41;1714264;82;21102;-58
2022/01/02 04:49:46;;;;;;;0.20;0.20;;;;;;;-0.84;63.35;100736.55;1720347;82;21575;-59
2022/01/02 04:52:13;;;;;;;0.37;0.20;;;;;;;-0.86;63.15;100735.81;1713322;82;21619;-62
2022/01/02 04:54:39;;;;;;;1.40;0.47;;;;;;;-0.88;63.97;100742.11;1712313;82;21037;-61
2022/01/02 04:57:07;;;;;;;0.50;0.20;;;;;;;-0.90;63.51;100751.38;1700326;82;21614;-61
2022/01/02 04:59:37;;;;;;;0.80;0.40;;;;;;;-0.95;63.70;100750.83;1644103;85;21066;-59
2022/01/02 05:02:05;;;;;;;2.27;1.07;;;;;;;-0.95;64.42;100750.00;1694536;83;21035;-58
2022/01/02 05:04:33;;;;;;;0.50;0.50;;;;;;;-0.97;64.47;100759.73;1697430;83;22622;-59
2022/01/02 05:06:59;;;;;;;1.05;0.65;;;;;;;-1.01;64.49;100766.48;1696681;83;21093;-58
2022/01/02 05:11:16;;;;;;;0.30;0.20;;;;;;;-1.02;65.08;100766.13;1818359;76;22243;-58
2022/01/02 05:13:44;;;;;;;0.30;0.30;;;;;;;-1.10;65.05;100767.09;1683568;83;21143;-58
2022/01/02 05:16:11;;;;;;;0.60;0.20;;;;;;;-1.05;65.22;100762.87;1689620;83;21348;-60
2022/01/02 05:18:38;;;;;;;0.50;0.30;;;;;;;-1.10;65.44;100763.64;1651749;85;21120;-59
2022/01/02 05:21:05;;;;;;;0.30;0.20;;;;;;;-1.13;65.67;100760.77;1651872;85;21008;-59
2022/01/02 05:23:33;;;;;;;2.03;0.37;;;;;;;-1.15;65.55;100768.34;1670693;83;21343;-62
2022/01/02 05:26:00;;;;;;;0.33;0.25;;;;;;;-1.19;65.71;100772.48;1669051;84;21095;-61
2022/01/02 05:28:27;;;;;;;0.30;0.30;;;;;;;-1.20;66.27;100767.35;1651023;86;21592;-60
2022/01/02 05:30:53;;;;;;;1.00;0.23;;;;;;;-1.25;66.36;100771.56;1656572;84;21043;-59
2022/01/02 05:33:20;;;;;;;0.28;0.20;;;;;;;-1.27;66.34;100768.21;1646182;86;21184;-61
2022/01/02 05:35:47;;;;;;;0.83;0.30;;;;;;;-1.32;66.41;100767.67;1642048;86;20994;-59
2022/01/02 05:38:15;;;;;;;0.25;0.25;;;;;;;-1.35;66.27;100771.81;1649536;85;21096;-60
2022/01/02 05:40:42;;;;;;;0.23;0.23;;;;;;;-1.38;66.54;100770.70;1638005;86;21564;-64
2022/01/02 05:43:09;;;;;;;;;;;;;;;-1.38;66.67;100778.06;1659548;85;21026;-59
2022/01/02 05:45:35;;;;;;;1.10;0.37;;;;;;;-1.42;66.55;100779.69;1669434;84;20108;-57
2022/01/02 05:48:05;;;;;;;1.17;0.77;;;;;;;-1.47;66.60;100772.16;1651132;85;21038;-55
2022/01/02 05:50:32;;;;;;;0.37;0.30;;;;;;;-1.48;66.89;100779.61;1649188;85;21061;-59
2022/01/02 05:52:59;;;;;;;2.50;0.40;;;;;;;-1.46;66.70;100782.97;1667631;84;21033;-58
2022/01/02 05:55:26;;;;;;;0.90;0.30;;;;;;;-1.45;66.33;100792.50;1648158;84;21600;-57
2022/01/02 05:57:53;;;;;;;0.42;0.30;;;;;;;-1.46;66.19;100798.66;1651714;85;21056;-58
2022/01/02 06:00:19;;;;;;;0.55;0.55;;;;;;;-1.48;65.97;100801.84;1644815;85;21041;-59
2022/01/02 06:02:47;;;;;;;0.73;0.40;;;;;;;-1.53;65.90;100810.44;1647413;85;21626;-68
2022/01/02 06:05:14;;;;;;;;;;;;;;;-1.52;65.96;100812.61;1630251;87;21890;-59
2022/01/02 06:07:40;;;;;;;0.80;0.30;;;;;;;-1.53;66.12;100807.00;1650593;85;20135;-62
2022/01/02 06:10:09;;;;;;;0.30;0.20;;;;;;;-1.55;66.23;100818.02;1659549;85;21027;-59
2022/01/02 06:12:37;;;;;;;0.50;0.40;;;;;;;-1.56;66.50;100806.73;1636027;84;20981;-62
2022/01/02 06:15:06;;;;;;;0.20;0.17;;;;;;;-1.55;66.51;100820.16;1691435;83;21014;-57
2022/01/02 06:17:34;;;;;;;2.60;0.67;;;;;;;-1.52;66.27;100821.28;1715153;83;21542;-56
2022/01/02 06:20:00;;;;;;;0.30;0.30;;;;;;;-1.49;66.10;100817.14;1715264;83;21060;-56
2022/01/02 06:22:27;;;;;;;0.50;0.30;;;;;;;-1.50;66.07;100824.63;1675765;84;21117;-56
2022/01/02 06:24:53;;;;;;;1.22;0.50;;;;;;;-1.48;65.57;100827.16;1702740;83;21068;-58
2022/01/02 06:27:20;;;;;;;;;;;;;;;-1.49;65.17;100832.00;1714643;83;21128;-58
2022/01/02 06:29:47;;;;;;;0.72;0.30;;;;;;;-1.50;65.11;100830.34;1676230;84;20165;-58
2022/01/02 06:32:15;;;;;;;0.40;0.20;;;;;;;-1.58;64.32;100826.44;1714165;83;21100;-57
2022/01/02 06:34:44;;;;;;;0.20;0.20;;;;;;;-1.61;61.13;100836.25;1716758;82;21520;-55
2022/01/02 06:37:12;;;;;;;0.53;0.40;;;;;;;-1.62;61.31;100836.73;1705422;83;21010;-55
2022/01/02 06:39:38;;;;;;;0.50;0.30;;;;;;;-1.64;60.67;100839.05;1693592;83;21026;-55
2022/01/02 06:42:06;;;;;;;0.37;0.25;;;;;;;-1.62;60.74;100836.73;1711901;83;21250;-57
2022/01/02 06:44:34;;;;;;;0.63;0.23;;;;;;;-1.56;60.33;100840.72;1713098;82;21534;-58
2022/01/02 06:47:01;;;;;;;0.72;0.30;;;;;;;-1.48;60.58;100829.30;1714205;83;21002;-57
2022/01/02 06:49:27;;;;;;;0.90;0.53;;;;;;;-1.42;58.85;100834.13;1704179;83;21085;-57
2022/01/02 06:51:53;;;;;;;0.35;0.35;;;;;;;-1.43;58.38;100825.92;1714470;83;21087;-57
2022/01/02 06:54:19;;;;;;;0.55;0.47;;;;;;;-1.37;58.40;100837.28;1708791;83;21085;-56
2022/01/02 06:56:46;;;;;;;0.30;0.30;;;;;;;-1.40;57.29;100838.78;1710741;83;21082;-57
2022/01/02 06:59:12;;;;;;;0.40;0.30;;;;;;;-1.39;57.02;100840.47;1692433;83;21616;-57
2022/01/02 07:01:38;;;;;;;0.40;0.20;;;;;;;-1.42;56.41;100847.20;1702323;83;21095;-55
2022/01/02 07:04:04;;;;;;;0.30;0.25;;;;;;;-1.46;56.13;100850.95;1700824;83;21075;-57
2022/01/02 07:06:31;;;;;;;0.40;0.30;;;;;;;-1.48;56.32;100860.67;1673842;84;21356;-56
2022/01/02 07:08:57;;;;;;;1.52;0.20;;;;;;;-1.50;56.16;100862.55;1701567;83;21601;-56
2022/01/02 07:11:23;;;;;;;0.78;0.65;;;;;;;-1.54;56.04;100859.77;1691684;83;21166;-57
2022/01/02 07:13:49;;;;;;;0.42;0.42;;;;;;;-1.50;56.95;100856.02;1664899;84;21581;-61
2022/01/02 07:16:15;;;;;;;0.72;0.25;;;;;;;-1.46;57.02;100860.58;1668566;84;21022;-59
2022/01/02 07:18:41;;;;;;;0.30;0.20;;;;;;;-1.38;56.26;100857.82;1628801;86;21565;-62
2022/01/02 07:21:07;;;;;;;0.40;0.20;;;;;;;-1.30;56.07;100855.19;1668295;84;20951;-61
2022/01/02 07:23:33;;;;;;;1.12;0.30;;;;;;;-1.31;55.65;100854.84;1672966;83;21037;-61
2022/01/02 07:26:00;;;;;;;0.70;0.20;;;;;;;-1.32;55.34;100862.30;1694105;83;22171;-64
2022/01/02 07:28:26;;;;;;;0.55;0.55;;;;;;;-1.26;56.38;100857.97;1682312;83;21108;-62
2022/01/02 07:30:53;;;;;;;0.57;0.27;;;;;;;-1.24;55.99;100866.11;1687117;83;21073;-62
2022/01/02 07:33:22;;;;;;;0.30;0.30;;;;;;;-1.21;56.36;100867.20;1694651;83;21534;-62
2022/01/02 07:35:48;;;;;;;0.20;0.20;;;;;;;-1.21;55.79;100880.28;1695279;83;21560;-61
2022/01/02 07:38:14;;;;;;;0.47;0.28;;;;;;;-1.20;56.32;100875.91;1660238;85;21117;-62
2022/01/02 07:40:40;;;;;;;0.42;0.23;;;;;;;-1.18;56.37;100874.86;1629654;86;21562;-62
2022/01/02 07:43:06;;;;;;;0.55;0.37;;;;;;;-1.15;56.44;100875.12;1659992;85;21046;-61
2022/01/02 07:45:33;;;;;;;1.80;0.73;;;;;;;-1.10;57.14;100875.66;1686061;81;21068;-61
2022/01/02 07:47:59;;;;;;;0.72;0.65;;;;;;;-1.04;56.73;100879.66;1717214;81;20997;-63
2022/01/02 07:50:26;;;;;;;0.85;0.50;;;;;;;-1.05;56.30;100880.62;1736982;81;21043;-64
2022/01/02 07:52:54;;;;;;;0.60;0.40;;;;;;;-1.03;56.35;100882.66;1735129;81;21006;-61
2022/01/02 07:55:20;;;;;;;2.00;0.30;;;;;;;-1.07;56.20;100875.95;1719456;81;21533;-62
2022/01/02 07:57:48;;;;;;;1.67;0.42;;;;;;;-1.07;55.80;100887.25;1667961;84;21492;-62
2022/01/02 08:00:16;;;;;;;0.40;0.40;;;;;;;-1.07;56.28;100885.95;1654173;84;21147;-63
2022/01/02 08:02:43;;;;;;;0.53;0.20;;;;;;;-1.05;54.66;100882.76;1718344;82;21505;-61
2022/01/02 08:05:10;;;;;;;0.40;0.20;;;;;;;-1.03;54.00;100879.56;1712500;82;21018;-63
2022/01/02 08:07:40;;;;;;;0.70;0.20;;;;;;;-1.02;53.22;100876.47;1720272;82;21111;-62
2022/01/02 08:10:08;;;;;;;1.20;0.30;;;;;;;-1.03;52.94;100874.81;1700721;82;21608;-60
2022/01/02 08:12:34;;;;;;;0.40;0.27;;;;;;;-1.00;52.77;100879.38;1716281;82;20981;-62
2022/01/02 08:15:04;;;;;;;1.40;0.20;;;;;;;-1.01;52.73;100880.30;1723867;82;21041;-62
2022/01/02 08:17:30;;;;;;;0.57;0.30;;;;;;;-0.95;51.64;100883.47;1715647;82;21067;-63
2022/01/02 08:19:56;;;;;;;1.92;0.28;;;;;;;-0.94;51.44;100875.52;1723243;82;21046;-61
2022/01/02 08:22:22;;;;;;;0.65;0.20;;;;;;;-0.94;50.36;100881.20;1711048;82;21050;-62
2022/01/02 08:24:49;;;;;;;0.97;0.43;;;;;;;-0.95;50.49;100880.38;1679926;84;21095;-62
2022/01/02 08:27:15;;;;;;;0.53;0.40;;;;;;;-0.93;49.83;100885.52;1606887;87;21163;-62
2022/01/02 08:29:41;;;;;;;1.12;0.25;;;;;;;-0.90;49.78;100887.45;1636806;85;21029;-63
2022/01/02 08:32:08;;;;;;;0.62;0.53;;;;;;;-0.89;49.13;100864.26;1610640;87;21118;-61
2022/01/02 08:34:34;;;;;;;0.85;0.20;;;;;;;-0.89;48.93;100877.82;1708614;81;21584;-60
2022/01/02 08:36:59;;;;;;;0.20;0.20;;;;;;;-0.87;48.72;100885.09;1728384;81;21024;-62
2022/01/02 08:39:26;;;;;;;0.53;0.50;;;;;;;-0.89;48.40;100885.67;1747995;81;21049;-62
2022/01/02 08:41:53;;;;;;;1.13;0.33;;;;;;;-0.95;48.93;100881.68;1730669;81;21009;-62
2022/01/02 08:44:20;;;;;;;;;;;;;;;-0.92;48.93;100885.86;1735709;80;21548;-62
2022/01/02 08:46:46;;;;;;;0.62;0.20;;;;;;;-0.87;48.70;100879.39;1733309;81;20172;-61
2022/01/02 08:49:14;;;;;;;0.60;0.13;;;;;;;-0.84;48.67;100877.89;1696256;83;21037;-62
2022/01/02 08:51:42;;;;;;;0.40;0.20;;;;;;;-0.82;48.92;100874.70;1688062;83;21542;-62
2022/01/02 08:54:08;;;;;;;0.30;0.20;;;;;;;-0.73;48.53;100876.35;1698751;83;21540;-64
2022/01/02 08:56:34;;;;;;;1.00;0.60;;;;;;;-0.77;47.68;100867.86;1699418;82;21625;-63
2022/01/02 08:59:00;;;;;;;1.80;0.42;;;;;;;-0.74;48.46;100875.97;1729521;81;21044;-60
2022/01/02 09:01:26;;;;;;;0.30;0.28;;;;;;;-0.72;48.07;100867.06;1734193;81;21385;-63
2022/01/02 09:03:52;;;;;;;0.60;0.42;;;;;;;-0.66;47.21;100867.13;1731062;81;21091;-62
2022/01/02 09:06:19;;;;;;;0.50;0.45;;;;;;;-0.63;46.79;100857.28;1740695;81;21044;-60
2022/01/02 09:08:45;;;;;;;1.72;0.55;;;;;;;-0.58;46.78;100863.54;1726770;81;20979;-63
2022/01/02 09:11:11;;;;;;;0.72;0.30;;;;;;;-0.53;46.96;100865.35;1733679;81;21057;-61
2022/01/02 09:13:37;;;;;;;1.12;0.50;;;;;;;-0.51;46.66;100859.56;1696783;82;21602;-64
2022/01/02 09:16:04;;;;;;;1.77;0.80;;;;;;;-0.50;46.54;100853.85;1705375;82;21029;-64
2022/01/02 09:18:30;;;;;;;2.27;1.47;;;;;;;-0.49;47.25;100855.06;1710151;82;21076;-64
2022/01/02 09:20:58;;;;;;;2.87;1.30;;;;;;;-0.43;47.77;100845.95;1707966;82;21058;-61
2022/01/02 09:23:24;;;;;;;0.62;0.57;;;;;;;-0.32;47.62;100839.95;1694726;82;21055;-61
2022/01/02 09:25:50;;;;;;;1.20;0.93;;;;;;;-0.36;47.12;100848.48;1703332;82;21045;-62
2022/01/02 09:28:17;;;;;;;1.30;0.42;;;;;;;-0.33;46.75;100861.88;1705342;82;21561;-63
2022/01/02 09:30:43;;;;;;;3.27;0.50;;;;;;;-0.43;46.63;100858.56;1691358;82;21115;-64
2022/01/02 09:33:10;;;;;;;0.37;0.30;;;;;;;-0.47;46.68;100861.03;1711668;82;21037;-63
2022/01/02 09:35:38;;;;;;;0.57;0.40;;;;;;;-0.47;46.82;100855.80;1704524;82;21026;-62
2022/01/02 09:38:04;;;;;;;0.87;0.30;;;;;;;-0.43;47.53;100854.64;1700436;83;21073;-64
2022/01/02 09:40:32;;;;;;;0.40;0.37;;;;;;;-0.37;47.30;100853.38;1711049;82;21061;-62
2022/01/02 09:42:59;;;;;;;0.40;0.30;;;;;;;-0.30;46.99;100851.16;1714415;83;21065;-61
2022/01/02 09:45:27;;;;;;;0.40;0.40;;;;;;;-0.25;46.98;100856.93;1680517;84;21084;-63
2022/01/02 09:47:53;;;;;;;2.13;0.20;;;;;;;-0.22;45.04;100858.04;1691541;84;21035;-63
2022/01/02 09:50:20;;;;;;;0.70;0.30;;;;;;;-0.32;45.46;100860.91;1689650;84;21074;-62
2022/01/02 09:52:51;;;;;;;0.30;0.20;;;;;;;-0.32;46.50;100863.08;1693188;84;21082;-60
2022/01/02 09:55:18;;;;;;;0.30;0.20;;;;;;;-0.28;45.49;100862.41;1682966;84;21086;-62
2022/01/02 09:57:46;;;;;;;1.13;0.37;;;;;;;-0.24;46.16;100862.07;1709941;82;21045;-62
2022/01/02 10:00:14;;;;;;;1.53;0.40;;;;;;;-0.16;46.54;100860.70;1716153;82;21485;-63
2022/01/02 10:03:07;;;;;;;3.27;0.40;;;;;;;-0.08;46.15;100863.14;1703775;82;21065;-63
2022/01/02 10:05:59;;;;;;;0.40;0.30;;;;;;;0.02;46.18;100858.13;1704881;83;21000;-62
2022/01/02 10:08:31;;;;;;;1.77;0.53;;;;;;;0.13;45.96;100856.90;1675189;84;21642;-63
2022/01/02 10:11:18;;;;;;;2.10;0.40;;;;;;;0.21;45.28;100859.42;1680651;84;21086;-63
2022/01/02 10:13:54;;;;;;;1.13;0.70;;;;;;;0.25;45.27;100854.36;1675312;84;20994;-63
2022/01/02 10:16:40;;;;;;;1.70;0.73;;;;;;;0.30;45.83;100846.53;1678003;84;21552;-63
2022/01/02 10:19:26;;;;;;;3.23;0.70;;;;;;;0.34;44.81;100851.05;1677702;84;20974;-63
2022/01/02 10:22:03;;;;;;;2.50;0.80;;;;;;;0.33;44.83;100846.77;1698770;82;21553;-63
2022/01/02 10:24:36;;;;;;;2.33;0.50;;;;;;;0.42;44.64;100851.84;1684403;82;21018;-63
2022/01/02 10:27:15;;;;;;;1.43;0.40;;;;;;;0.48;42.74;100850.08;1707646;83;21045;-65
2022/01/02 10:29:54;;;;;;;1.17;0.30;;;;;;;0.58;43.21;100853.25;1681819;84;21129;-62
2022/01/02 10:32:35;;;;;;;2.47;0.40;;;;;;;0.68;43.38;100849.48;1677982;84;21083;-63
2022/01/02 10:35:24;;;;;;;0.70;0.30;;;;;;;0.66;43.45;100842.65;1698992;81;21080;-64
2022/01/02 10:38:01;;;;;;;1.50;0.53;;;;;;;0.65;43.05;100835.26;1702577;82;21032;-64
2022/01/02 10:40:41;;;;;;;0.30;0.20;;;;;;;0.58;42.00;100836.20;1706360;82;21499;-62
2022/01/02 10:43:11;;;;;;;1.33;0.20;;;;;;;0.49;42.39;100828.99;1704071;83;21503;-62
2022/01/02 10:45:44;;;;;;;0.40;0.20;;;;;;;0.49;42.98;100832.92;1709005;82;21107;-62
2022/01/02 10:48:15;;;;;;;1.13;0.30;;;;;;;0.44;42.48;100831.10;1701790;82;21478;-62
2022/01/02 10:51:17;;;;;;;1.80;0.10;;;;;;;0.43;42.14;100829.89;1710175;82;21019;-64
2022/01/02 10:53:56;;;;;;;1.47;0.70;;;;;;;0.38;41.94;100823.69;1733059;81;21096;-63
2022/01/02 10:56:26;;;;;;;0.40;0.40;;;;;;;0.31;42.82;100831.62;1731304;81;21074;-62
2022/01/02 10:58:53;;;;;;;1.07;0.20;;;;;;;0.29;42.88;100837.45;1733408;82;21061;-64
2022/01/02 11:01:20;;;;;;;2.07;0.50;;;;;;;0.33;43.34;100838.42;1726818;81;21542;-62
2022/01/02 11:03:49;;;;;;;4.30;0.20;;;;;;;0.41;42.76;100832.63;1704390;83;21037;-64
2022/01/02 11:06:27;;;;;;;0.80;0.60;;;;;;;0.44;42.02;100827.17;1695892;82;21038;-62
2022/01/02 11:08:59;;;;;;;0.87;0.30;;;;;;;0.43;42.27;100832.03;1708240;82;21526;-63
2022/01/02 11:11:26;;;;;;;1.83;0.33;;;;;;;0.41;42.82;100818.20;1702927;82;21019;-61
2022/01/02 11:13:52;;;;;;;6.73;1.27;;;;;;;0.41;42.19;100811.64;1732682;82;21003;-65
2022/01/02 11:16:18;;;;;;;1.92;0.40;;;;;;;0.37;41.76;100825.93;1719661;82;21099;-65
2022/01/02 11:18:47;;;;;;;1.42;0.45;;;;;;;0.43;41.80;100832.03;1724318;81;21059;-61
2022/01/02 11:21:14;;;;;;;1.10;0.30;;;;;;;0.45;41.88;100831.45;1722875;81;21007;-62
2022/01/02 11:24:20;;;;;;;0.87;0.20;;;;;;;0.51;42.40;100829.72;1715687;81;21055;-63
2022/01/02 11:27:03;;;;;;;0.40;0.27;;;;;;;0.53;41.72;100818.64;1704533;83;21136;-63
2022/01/02 11:29:33;;;;;;;3.50;0.40;;;;;;;0.52;41.31;100823.98;1704512;83;21086;-62
2022/01/02 11:31:58;;;;;;;1.13;0.33;;;;;;;0.50;41.75;100823.27;1649421;85;21716;-61
2022/01/02 11:34:44;;;;;;;1.15;0.50;;;;;;;0.47;42.21;100817.78;1666432;85;21013;-62
2022/01/02 11:37:21;;;;;;;1.90;0.63;;;;;;;0.49;41.95;100813.25;1708377;82;21080;-63
2022/01/02 11:40:06;;;;;;;0.80;0.37;;;;;;;0.49;41.58;100828.99;1711660;82;20990;-63
2022/01/02 11:42:42;;;;;;;1.33;0.60;;;;;;;0.52;42.11;100829.23;1709027;82;21217;-62
2022/01/02 11:45:25;;;;;;;2.17;0.77;;;;;;;0.53;41.61;100817.32;1709698;81;21020;-62
2022/01/02 11:47:53;;;;;;;1.43;0.93;;;;;;;0.57;41.82;100809.59;1692083;82;21121;-63
2022/01/02 11:50:35;;;;;;;5.20;1.07;;;;;;;0.57;41.75;100805.65;1703206;82;21385;-64